Flight Track Log - Related Links

Times and Time Zones

All times are in EDT time to prevent confusion due to time zone crossing. See the N137TK flight status page for this flight to view local times or setup timezone preferences in your user account.


Time Position Orientation Groundspeed Altitude Reporting Facility
EDT Latitude Longitude Course Direction KTS MPH feet Rate Location/Type
Thu 06:27:08 AM 26.2428 -81.8156 North 178 205 3,800  Level Miami Center
Thu 06:28:08 AM 26.2822 -81.8217 352° North 184 212 5,500 1,700 Climbing Miami Center
Thu 06:29:08 AM 26.3300 -81.8261 355° North 171 197 7,200 1,450 Climbing Miami Center
Thu 06:30:08 AM 26.3819 -81.8328 353° North 181 208 8,400 1,300 Climbing Miami Center
Thu 06:31:00 AM 26.4616 -82.0995 347° North  Level Estimated
Thu 06:31:08 AM 26.4383 -81.8375 356° North 197 227 9,800  Level Miami Center
Thu 06:32:00 AM 26.5131 -82.1536 North  Level Estimated
Thu 06:32:08 AM 26.4986 -81.8447 354° North 203 234 11,000  Level Miami Center
Thu 06:33:08 AM 26.5547 -81.8539 352° North 203 234 12,200 1,200 Climbing Miami Center
Thu 06:34:08 AM 26.6128 -81.8589 356° North 203 234 13,400 1,100 Climbing Miami Center
Thu 06:35:08 AM 26.6711 -81.8661 354° North 203 234 14,400 950 Climbing Miami Center
Thu 06:36:08 AM 26.7333 -81.8756 352° North 208 239 15,300 950 Climbing Miami Center
Thu 06:37:08 AM 26.7939 -81.8781 358° North 222 255 16,300 1,000 Climbing Miami Center
Thu 06:38:08 AM 26.8542 -81.8856 354° North 217 250 17,300 900 Climbing Miami Center
Thu 06:39:08 AM 26.9164 -81.8950 352° North 217 250 18,100 900 Climbing Miami Center
Thu 06:40:08 AM 26.9767 -81.9000 356° North 217 250 19,100 1,000 Climbing Miami Center
Thu 06:41:08 AM 27.0331 -81.9047 356° North 217 250 20,100 1,050 Climbing Miami Center
Thu 06:42:08 AM 27.0975 -81.9122 354° North 212 244 21,200 950 Climbing Miami Center
Thu 06:43:08 AM 27.1556 -81.9194 354° North 212 244 22,000 400 Climbing Miami Center
Thu 06:44:08 AM 27.2181 -81.9269 354° North 217 250 22,000  Level Miami Center
Thu 06:45:08 AM 27.2783 -81.9319 356° North 234 269 22,000  Level Miami Center
Thu 06:46:08 AM 27.3553 -81.9422 353° North 245 282 22,000  Level Miami Center
Thu 06:47:08 AM 27.4258 -81.9500 354° North 245 282 22,000  Level Miami Center
Thu 06:48:08 AM 27.4986 -81.9581 354° North 258 297 22,000  Level Miami Center
Thu 06:49:08 AM 27.5650 -81.9656 354° North 253 291 22,000  Level Miami Center
Thu 06:50:08 AM 27.6336 -81.9758 352° North 253 291 22,000  Level Miami Center
Thu 06:51:08 AM 27.7147 -81.9817 356° North 253 291 22,000  Level Miami Center
Thu 06:52:08 AM 27.7875 -81.9919 353° North 258 297 22,000  Level Miami Center
Thu 06:53:50 AM 27.9069 -82.0050 354° North 272 313 22,000  Level Jacksonville Center
Thu 06:54:50 AM 27.9781 -82.0161 352° North 267 307 22,000  Level Jacksonville Center
Thu 06:55:50 AM 28.0386 -82.0603 327° Northwest 258 297 22,000  Level Jacksonville Center
Thu 06:56:50 AM 28.0933 -82.1114 321° Northwest 253 291 22,000  Level Jacksonville Center
Thu 06:57:50 AM 28.1500 -82.1606 323° Northwest 253 291 22,000  Level Jacksonville Center
Thu 06:58:50 AM 28.2067 -82.2094 323° Northwest 253 291 22,000  Level Jacksonville Center
Thu 06:59:50 AM 28.2631 -82.2611 321° Northwest 253 291 22,000  Level Jacksonville Center
Thu 07:00:50 AM 28.3197 -82.3103 323° Northwest 253 291 22,000  Level Jacksonville Center
Thu 07:01:50 AM 28.3742 -82.3617 320° Northwest 253 291 22,000  Level Jacksonville Center
Thu 07:02:50 AM 28.4328 -82.4133 322° Northwest 253 291 22,000  Level Jacksonville Center
Thu 07:03:50 AM 28.4872 -82.4628 321° Northwest 253 291 22,000  Level Jacksonville Center
Thu 07:04:50 AM 28.5439 -82.5144 321° Northwest 253 291 22,000  Level Jacksonville Center
Thu 07:05:50 AM 28.6003 -82.5639 322° Northwest 253 291 22,000  Level Jacksonville Center
Thu 07:06:50 AM 28.6567 -82.6181 320° Northwest 253 291 22,000  Level Jacksonville Center
Thu 07:07:50 AM 28.7172 -82.6700 323° Northwest 253 291 22,000  Level Jacksonville Center
Thu 07:08:50 AM 28.7739 -82.7244 320° Northwest 258 297 22,000  Level Jacksonville Center
Thu 07:09:50 AM 28.8303 -82.7742 322° Northwest 258 297 22,000  Level Jacksonville Center
Thu 07:10:50 AM 28.8867 -82.8239 322° Northwest 253 291 22,000  Level Jacksonville Center
Thu 07:11:50 AM 28.9431 -82.8761 321° Northwest 253 291 22,000  Level Jacksonville Center
Thu 07:12:50 AM 28.9994 -82.9258 322° Northwest 253 291 22,000  Level Jacksonville Center
Thu 07:13:50 AM 29.0536 -82.9781 320° Northwest 253 291 22,000  Level Jacksonville Center
Thu 07:14:50 AM 29.1100 -83.0281 322° Northwest 253 291 22,000  Level Jacksonville Center
Thu 07:15:50 AM 29.1661 -83.0781 322° Northwest 253 291 22,000  Level Jacksonville Center
Thu 07:16:50 AM 29.2203 -83.1281 321° Northwest 253 291 22,000  Level Jacksonville Center
Thu 07:17:50 AM 29.2744 -83.1806 320° Northwest 253 291 22,000  Level Jacksonville Center
Thu 07:18:50 AM 29.3286 -83.2308 321° Northwest 253 291 22,000  Level Jacksonville Center
Thu 07:19:50 AM 29.3850 -83.2811 322° Northwest 253 291 22,000  Level Jacksonville Center
Thu 07:20:50 AM 29.4411 -83.3289 323° Northwest 253 291 22,000  Level Jacksonville Center
Thu 07:21:50 AM 29.4953 -83.3817 320° Northwest 253 291 22,000  Level Jacksonville Center
Thu 07:22:50 AM 29.5514 -83.4322 322° Northwest 253 291 22,000  Level Jacksonville Center
Thu 07:23:50 AM 29.5992 -83.4778 320° Northwest 253 291 22,000  Level Jacksonville Center
Thu 07:24:50 AM 29.6533 -83.5306 320° Northwest 253 291 22,000  Level Jacksonville Center
Thu 07:25:50 AM 29.7094 -83.5811 322° Northwest 253 291 22,000  Level Jacksonville Center
Thu 07:26:50 AM 29.7653 -83.6342 320° Northwest 253 291 22,000  Level Jacksonville Center
Thu 07:27:50 AM 29.8214 -83.6850 322° Northwest 253 291 22,000  Level Jacksonville Center
Thu 07:28:50 AM 29.8775 -83.7358 322° Northwest 253 291 22,000  Level Jacksonville Center
Thu 07:29:50 AM 29.9314 -83.7867 321° Northwest 253 291 22,000  Level Jacksonville Center
Thu 07:30:50 AM 29.9875 -83.8397 321° Northwest 253 291 22,000  Level Jacksonville Center
Thu 07:31:50 AM 30.0433 -83.8908 322° Northwest 253 291 22,000  Level Jacksonville Center
Thu 07:32:50 AM 30.0972 -83.9442 319° Northwest 253 291 22,000  Level Jacksonville Center
Thu 07:33:50 AM 30.1531 -83.9953 322° Northwest 253 291 22,000  Level Jacksonville Center
Thu 07:34:50 AM 30.2111 -84.0464 323° Northwest 253 291 22,000  Level Jacksonville Center
Thu 07:35:50 AM 30.2628 -84.0997 318° Northwest 253 291 22,000  Level Jacksonville Center
Thu 07:36:50 AM 30.3208 -84.1511 323° Northwest 253 291 22,000  Level Jacksonville Center
Thu 07:37:50 AM 30.3706 -84.2022 318° Northwest 253 291 22,000  Level Jacksonville Center
Thu 07:38:50 AM 30.4242 -84.2536 320° Northwest 253 291 22,000  Level Jacksonville Center
Thu 07:39:50 AM 30.4800 -84.3050 322° Northwest 253 291 22,000  Level Jacksonville Center
Thu 07:40:50 AM 30.5358 -84.3567 321° Northwest 253 291 22,000  Level Jacksonville Center
Thu 07:41:50 AM 30.5850 -84.4272 309° West 253 291 22,000  Level Jacksonville Center
Thu 07:42:50 AM 30.6239 -84.4931 304° West 248 285 22,000  Level Jacksonville Center
Thu 07:43:50 AM 30.6608 -84.5564 304° West 259 298 22,000  Level Jacksonville Center
Thu 07:44:50 AM 30.7017 -84.6247 305° West 259 298 22,000  Level Jacksonville Center
Thu 07:45:50 AM 30.7403 -84.6908 304° West 254 292 22,000  Level Jacksonville Center
Thu 07:46:50 AM 30.7789 -84.7592 303° West 260 299 22,000  Level Jacksonville Center
Thu 07:47:50 AM 30.8197 -84.8278 305° West 260 299 22,000  Level Jacksonville Center
Thu 07:48:50 AM 30.8583 -84.8939 304° West 260 299 22,000  Level Jacksonville Center
Thu 07:49:50 AM 30.9031 -84.9722 304° West 260 299 22,000  Level Jacksonville Center
Thu 07:50:50 AM 30.9417 -85.0411 303° West 260 299 22,000  Level Jacksonville Center
Thu 07:51:50 AM 30.9800 -85.1097 303° West 260 299 22,000  Level Jacksonville Center
Thu 07:52:50 AM 31.0186 -85.1783 303° West 260 299 22,000  Level Jacksonville Center
Thu 07:53:50 AM 31.0611 -85.2475 306° West 260 299 22,000  Level Jacksonville Center
Thu 07:54:50 AM 31.0994 -85.3186 302° West 260 299 22,000  Level Jacksonville Center
Thu 07:55:50 AM 31.1378 -85.3853 304° West 260 299 22,000  Level Jacksonville Center
Thu 07:56:50 AM 31.1781 -85.4567 303° West 260 299 22,000  Level Jacksonville Center
Thu 07:57:50 AM 31.2164 -85.5233 304° West 260 299 22,000  Level Jacksonville Center
Thu 07:58:50 AM 31.2567 -85.5925 304° West 260 299 22,000  Level Jacksonville Center
Thu 07:59:50 AM 31.2969 -85.6642 303° West 260 299 22,000  Level Jacksonville Center
Thu 08:00:50 AM 31.3331 -85.7333 301° West 260 299 22,000  Level Jacksonville Center
Thu 08:01:50 AM 31.3731 -85.8028 304° West 255 293 22,000  Level Jacksonville Center
Thu 08:02:50 AM 31.4111 -85.8744 302° West 255 293 22,000  Level Jacksonville Center
Thu 08:05:17 AM 31.5092 -86.0411 305° West 262 302 22,000  Level Atlanta Center
Thu 08:06:17 AM 31.5478 -86.1125 302° West 257 296 22,000  Level Atlanta Center
Thu 08:07:17 AM 31.5861 -86.1817 303° West 257 296 22,000  Level Atlanta Center
Thu 08:08:17 AM 31.6244 -86.2508 303° West 257 296 22,000  Level Atlanta Center
Thu 08:09:17 AM 31.6650 -86.3225 304° West 257 296 22,000  Level Atlanta Center
Thu 08:10:17 AM 31.7033 -86.3944 302° West 257 296 22,000  Level Atlanta Center
Thu 08:11:17 AM 31.7436 -86.4639 304° West 257 296 22,000  Level Atlanta Center
Thu 08:12:17 AM 31.7819 -86.5358 302° West 257 296 22,000  Level Atlanta Center
Thu 08:13:17 AM 31.8222 -86.6053 304° West 257 296 22,000  Level Atlanta Center
Thu 08:14:17 AM 31.8603 -86.6772 302° West 257 296 22,000  Level Atlanta Center
Thu 08:15:17 AM 31.8986 -86.7444 304° West 257 296 22,000  Level Atlanta Center
Thu 08:16:17 AM 31.9386 -86.8167 303° West 257 296 22,000  Level Atlanta Center
Thu 08:17:17 AM 31.9747 -86.8861 302° West 257 296 22,000  Level Atlanta Center
Thu 08:18:17 AM 32.0147 -86.9561 304° West 257 296 22,000  Level Atlanta Center
Thu 08:19:17 AM 32.0528 -87.0258 303° West 257 296 22,000  Level Atlanta Center
Thu 08:20:17 AM 32.0928 -87.0983 303° West 257 296 22,000  Level Atlanta Center
Thu 08:21:17 AM 32.1306 -87.1708 302° West 257 296 22,000  Level Atlanta Center
Thu 08:22:17 AM 32.1683 -87.2408 303° West 257 296 22,000  Level Atlanta Center
Thu 08:23:17 AM 32.2083 -87.3108 304° West 257 296 22,000  Level Atlanta Center
Thu 08:24:17 AM 32.2442 -87.3786 302° West 270 311 22,000  Level Atlanta Center
Thu 08:25:17 AM 32.2839 -87.4489 304° West 270 311 22,000  Level Atlanta Center
Thu 08:26:17 AM 32.3236 -87.5192 304° West 264 304 22,000  Level Atlanta Center
Thu 08:27:17 AM 32.3611 -87.5944 301° West 259 298 22,000  Level Atlanta Center
Thu 08:29:17 AM 32.4356 -87.7358 302° West 264 304 22,000  Level Memphis Center
Thu 08:30:17 AM 32.4744 -87.8061 303° West 264 304 22,000  Level Memphis Center
Thu 08:31:17 AM 32.5114 -87.8767 302° West 264 304 22,000  Level Memphis Center
Thu 08:32:17 AM 32.5483 -87.9469 302° West 259 298 22,000  Level Memphis Center
Thu 08:33:17 AM 32.5872 -88.0175 303° West 254 292 22,000  Level Memphis Center
Thu 08:34:17 AM 32.6242 -88.0881 302° West 254 292 22,000  Level Memphis Center
Thu 08:35:17 AM 32.6628 -88.1561 304° West 249 287 22,000  Level Memphis Center
Thu 08:36:17 AM 32.6997 -88.2292 301° West 249 287 22,000  Level Memphis Center
Thu 08:37:17 AM 32.7364 -88.3000 302° West 249 287 22,000  Level Memphis Center
Thu 08:38:17 AM 32.7794 -88.3806 302° West 255 293 22,000  Level Memphis Center
Thu 08:39:17 AM 32.8158 -88.4514 301° West 255 293 22,000  Level Memphis Center
Thu 08:40:17 AM 32.8525 -88.5225 302° West 255 293 22,000  Level Memphis Center
Thu 08:41:17 AM 32.8911 -88.5933 303° West 255 293 22,000  Level Memphis Center
Thu 08:42:17 AM 32.9275 -88.6644 301° West 255 293 22,000  Level Memphis Center
Thu 08:43:17 AM 32.9661 -88.7378 302° West 250 288 22,000  Level Memphis Center
Thu 08:44:17 AM 33.0047 -88.8089 303° West 250 288 22,000  Level Memphis Center
Thu 08:45:17 AM 33.0408 -88.8803 301° West 250 288 22,000  Level Memphis Center
Thu 08:46:17 AM 33.0794 -88.9539 302° West 250 288 22,000  Level Memphis Center
Thu 08:47:17 AM 33.1156 -89.0278 300° West 250 288 22,000  Level Memphis Center
Thu 08:48:17 AM 33.1539 -89.1017 302° West 250 288 22,000  Level Memphis Center
Thu 08:49:17 AM 33.1903 -89.1731 301° West 250 288 22,000  Level Memphis Center
Thu 08:50:17 AM 33.2306 -89.2447 304° West 250 288 22,000  Level Memphis Center
Thu 08:51:17 AM 33.2667 -89.3186 300° West 250 288 22,000  Level Memphis Center
Thu 08:52:17 AM 33.3006 -89.3853 301° West 250 288 22,000  Level Memphis Center
Thu 08:53:17 AM 33.3367 -89.4594 300° West 250 288 22,000  Level Memphis Center
Thu 08:54:17 AM 33.3767 -89.5314 304° West 250 288 22,000  Level Memphis Center
Thu 08:55:17 AM 33.4128 -89.6056 300° West 250 288 22,000  Level Memphis Center
Thu 08:56:17 AM 33.4486 -89.6800 300° West 250 288 22,000  Level Memphis Center
Thu 08:57:17 AM 33.4886 -89.7544 303° West 255 293 22,000  Level Memphis Center
Thu 08:58:17 AM 33.5267 -89.8289 302° West 255 293 22,000  Level Memphis Center
Thu 08:59:17 AM 33.5625 -89.9011 301° West 260 299 22,000  Level Memphis Center
Thu 09:00:17 AM 33.6003 -89.9756 301° West 260 299 22,000  Level Memphis Center
Thu 09:01:17 AM 33.6358 -90.0503 300° West 260 299 22,000  Level Memphis Center
Thu 09:02:17 AM 33.6736 -90.1225 302° West 260 299 22,000  Level Memphis Center
Thu 09:03:17 AM 33.7114 -90.1975 301° West 260 299 22,000  Level Memphis Center
Thu 09:04:17 AM 33.7531 -90.2797 301° West 260 299 22,000  Level Memphis Center
Thu 09:05:17 AM 33.7886 -90.3572 299° West 260 299 22,000  Level Memphis Center
Thu 09:06:17 AM 33.8242 -90.4297 301° West 260 299 22,000  Level Memphis Center
Thu 09:07:17 AM 33.8617 -90.5047 301° West 265 305 22,000  Level Memphis Center
Thu 09:08:17 AM 33.8992 -90.5800 301° West 265 305 22,000  Level Memphis Center
Thu 09:09:17 AM 33.9367 -90.6525 302° West 267 307 22,000  Level Memphis Center
Thu 09:10:17 AM 33.9739 -90.7303 300° West 267 307 22,000  Level Memphis Center
Thu 09:11:17 AM 34.0175 -90.7983 308° West 267 307 22,000  Level Memphis Center
Thu 09:12:17 AM 34.0672 -90.8661 312° West 268 308 22,000  Level Memphis Center
Thu 09:13:17 AM 34.1172 -90.9367 311° West 274 315 22,000  Level Memphis Center
Thu 09:14:17 AM 34.1564 -90.9922 310° West 274 315 22,000  Level Memphis Center
Thu 09:15:17 AM 34.2061 -91.0628 310° West 267 307 22,000  Level Memphis Center
Thu 09:16:17 AM 34.2517 -91.1286 310° West 262 302 22,000  Level Memphis Center
Thu 09:17:17 AM 34.3036 -91.1969 313° West 267 307 22,000  Level Memphis Center
Thu 09:18:17 AM 34.3489 -91.2653 309° West 262 302 22,000  Level Memphis Center
Thu 09:19:17 AM 34.3964 -91.3339 310° West 262 302 22,000  Level Memphis Center
Thu 09:20:17 AM 34.4500 -91.4050 312° West 262 302 22,000  Level Memphis Center
Thu 09:21:17 AM 34.4933 -91.4733 308° West 262 302 22,000  Level Memphis Center
Thu 09:22:17 AM 34.5428 -91.5422 311° West 267 307 22,000  Level Memphis Center
Thu 09:23:17 AM 34.5922 -91.6083 312° West 267 307 22,000  Level Memphis Center
Thu 09:24:17 AM 34.6375 -91.6797 308° West 262 302 22,000  Level Memphis Center
Thu 09:25:17 AM 34.6806 -91.7361 313° West 267 307 22,000  Level Memphis Center
Thu 09:26:17 AM 34.7297 -91.8075 310° West 261 300 22,000  Level Memphis Center
Thu 09:27:17 AM 34.7769 -91.8742 311° West 266 306 22,000  Level Memphis Center
Thu 09:28:17 AM 34.8264 -91.9433 311° West 266 306 22,000  Level Memphis Center
Thu 09:29:17 AM 34.8714 -92.0125 308° West 266 306 22,000  Level Memphis Center
Thu 09:30:17 AM 34.9203 -92.0819 311° West 266 306 22,000  Level Memphis Center
Thu 09:31:17 AM 34.9675 -92.1511 310° West 266 306 22,000  Level Memphis Center
Thu 09:32:17 AM 35.0144 -92.2206 310° West 266 306 22,000  Level Memphis Center
Thu 09:33:17 AM 35.0633 -92.2903 311° West 266 306 22,000  Level Memphis Center
Thu 09:34:17 AM 35.1103 -92.3597 310° West 266 306 22,000  Level Memphis Center
Thu 09:35:17 AM 35.1592 -92.4294 311° West 266 306 22,000  Level Memphis Center
Thu 09:36:17 AM 35.2061 -92.4994 309° West 266 306 22,000 -200 Level Memphis Center
Thu 09:37:17 AM 35.2528 -92.5692 309° West 266 306 21,600 -700 Descending Memphis Center
Thu 09:38:17 AM 35.3036 -92.6469 309° West 272 313 20,600 -950 Descending Memphis Center
Thu 09:39:17 AM 35.3603 -92.7350 308° West 296 341 19,700 -900 Descending Memphis Center
Thu 09:40:17 AM 35.4150 -92.8131 311° West 303 349 18,800 -950 Descending Memphis Center
Thu 09:41:17 AM 35.4656 -92.8908 309° West 301 346 17,800 -850 Descending Memphis Center
Thu 09:42:17 AM 35.5144 -92.9561 313° West 291 335 17,100 -850 Descending Memphis Center
Thu 09:43:17 AM 35.5669 -93.0344 309° West 291 335 16,100 -550 Descending Memphis Center
Thu 09:44:17 AM 35.6153 -93.1100 308° West 291 335 16,000 -150 Descending Memphis Center
Thu 09:45:17 AM 35.6697 -93.1911 310° West 285 328 15,800 -600 Descending Memphis Center
Thu 09:46:17 AM 35.7203 -93.2644 310° West 285 328 14,800 -1,000 Descending Memphis Center
Thu 09:47:17 AM 35.7706 -93.3428 308° West 280 322 13,800 -1,000 Descending Memphis Center
Thu 09:48:17 AM 35.8208 -93.4189 309° West 280 322 12,800 -1,000 Descending Memphis Center
Thu 09:49:17 AM 35.8692 -93.4900 310° West 280 322 11,800 -1,000 Descending Memphis Center
Thu 09:50:17 AM 35.9172 -93.5661 308° West 280 322 10,800 -1,050 Descending Memphis Center
Thu 09:51:17 AM 35.9675 -93.6422 309° West 280 322 9,700 -1,050 Descending Memphis Center
Thu 09:52:17 AM 36.0156 -93.7161 309° West 280 322 8,700 -1,000 Descending Memphis Center
Thu 09:53:17 AM 36.0656 -93.7925 309° West 280 322 7,700 -1,000 Descending Memphis Center
Thu 09:54:17 AM 36.1136 -93.8614 311° West 280 322 6,700 -1,000 Descending Memphis Center
Thu 09:55:17 AM 36.1594 -93.9328 309° West 274 315 5,700 -900 Descending Memphis Center
Thu 09:56:17 AM 36.1994 -93.9961 308° West 274 315 4,900 -900 Descending Memphis Center
Thu 09:57:17 AM 36.2414 -94.0572 310° West 255 293 3,900 -850 Descending Memphis Center
Thu 09:58:17 AM 36.2772 -94.1156 307° West 230 265 3,200 -550 Descending Memphis Center
Thu 09:59:17 AM 36.3089 -94.1658 308° West 208 239 2,800 -150 Descending Memphis Center
Thu 10:00:17 AM 36.3433 -94.1986 323° Northwest 179 206 2,900 -100 Climbing Memphis Center
Thu 10:01:17 AM 36.3869 -94.2083 350° North 144 166 2,600 -300 Descending Memphis Center
Thu 10:03:00 AM 36.3452 -94.2193 302° West  Level Estimated

Login

Don't have an account? Register now (free) for customized features, flight alerts, and more!